Terminal Aerodrome Forecast
Issued by NWS

Current Version | Previous Version | Graphics & Text | Print | Product List | Glossary On
Versions: 1 2 3 4 5 6 7 8 9 10 11 12 13 14 15 16 17 18 19 20 21 22 23 24 25 26 27 28 29 30 31 32 33 34 35 36
000
FTUS41 KRNK 021422 AAB
TAFLWB
TAF AMD
KLWB 021422Z 0214/0312 00000KT 3/4SM BR OVC001
     FM021445 00000KT 2SM BR BKN001
     FM021515 00000KT P6SM SCT015 BKN080
     FM021800 VRB03KT P6SM VCSH BKN040
     FM030000 00000KT P6SM SCT080
     FM030700 00000KT 1/4SM FG BKN001=

USA.gov is the U.S. government's official web portal to all federal, state and local government web resources and services.